createdAt,value
2018-06-08T00:01:14.981Z,29.13
2018-06-08T00:03:43.321Z,25.40
2018-06-08T00:06:11.650Z,30.33
2018-06-08T00:08:39.966Z,30.13
2018-06-08T00:11:08.278Z,29.07
2018-06-08T00:13:36.583Z,28.00
2018-06-08T00:16:04.905Z,30.30
2018-06-08T00:18:33.216Z,27.40
2018-06-08T00:21:01.522Z,27.43
2018-06-08T00:23:29.817Z,31.37
2018-06-08T00:25:58.142Z,30.00
2018-06-08T00:28:26.439Z,27.03
2018-06-08T00:30:54.755Z,26.67
2018-06-08T00:33:23.069Z,28.00
2018-06-08T00:35:51.397Z,29.40
2018-06-08T00:38:19.716Z,35.53
2018-06-08T00:40:48.032Z,26.07
2018-06-08T00:43:16.364Z,26.23
2018-06-08T00:45:44.671Z,23.03
2018-06-08T00:48:12.976Z,25.40
2018-06-08T00:50:41.295Z,24.47
2018-06-08T00:53:09.609Z,32.40
2018-06-08T00:55:37.925Z,28.47
2018-06-08T00:58:06.261Z,26.10
2018-06-08T01:00:34.580Z,31.63
2018-06-08T01:03:02.879Z,32.60
2018-06-08T01:05:31.198Z,28.97
2018-06-08T01:07:59.520Z,27.57
2018-06-08T01:10:27.958Z,22.47
2018-06-08T01:12:56.397Z,30.73
2018-06-08T01:15:24.531Z,25.43
2018-06-08T01:17:53.078Z,29.80
2018-06-08T01:20:21.417Z,24.93
2018-06-08T01:22:49.733Z,21.83
2018-06-08T01:25:18.021Z,26.93
2018-06-08T01:27:46.322Z,25.13
2018-06-08T01:30:15.285Z,26.67
2018-06-08T01:32:43.576Z,24.57
2018-06-08T01:35:12.557Z,21.53
2018-06-08T01:37:40.872Z,27.80
2018-06-08T01:40:09.163Z,29.23
2018-06-08T01:42:37.478Z,24.83
2018-06-08T01:45:05.774Z,29.90
2018-06-08T01:47:34.080Z,33.53
2018-06-08T01:50:02.406Z,27.40
2018-06-08T01:52:30.717Z,27.50
2018-06-08T01:54:59.052Z,26.33
2018-06-08T01:57:27.340Z,28.03
2018-06-08T01:59:55.629Z,24.20
2018-06-08T02:02:23.937Z,28.37
2018-06-08T02:04:52.263Z,24.70
2018-06-08T02:07:21.145Z,27.77
2018-06-08T02:09:49.786Z,30.80
2018-06-08T02:12:18.621Z,30.57
2018-06-08T02:14:47.041Z,26.13
2018-06-08T02:17:15.333Z,26.93
2018-06-08T02:19:43.637Z,28.83
2018-06-08T02:22:11.925Z,26.77
2018-06-08T02:24:40.207Z,26.40
2018-06-08T02:27:08.509Z,27.03
2018-06-08T02:29:36.797Z,24.80
2018-06-08T02:32:05.097Z,23.50
2018-06-08T02:34:33.398Z,29.23
2018-06-08T02:37:01.686Z,28.93
2018-06-08T02:39:30.061Z,30.63
2018-06-08T02:41:58.369Z,28.73
2018-06-08T02:44:26.665Z,27.93
2018-06-08T02:46:54.982Z,25.83
2018-06-08T02:49:23.279Z,29.67
2018-06-08T02:51:51.636Z,23.27
2018-06-08T02:54:19.981Z,27.33
2018-06-08T02:56:48.264Z,27.77
2018-06-08T02:59:16.574Z,28.67
2018-06-08T03:01:45.457Z,29.27
2018-06-08T03:04:13.745Z,25.30
2018-06-08T03:06:42.076Z,29.53
2018-06-08T03:09:10.458Z,31.07
2018-06-08T03:11:38.781Z,29.67
2018-06-08T03:14:07.075Z,32.17
2018-06-08T03:16:35.604Z,32.50
2018-06-08T03:19:03.900Z,30.43
2018-06-08T03:21:32.200Z,28.63
2018-06-08T03:24:00.497Z,26.03
2018-06-08T03:26:28.782Z,25.23
2018-06-08T03:28:57.084Z,28.13
2018-06-08T03:31:25.389Z,23.63
2018-06-08T03:33:53.696Z,28.20
2018-06-08T03:36:21.981Z,21.80
2018-06-08T03:38:50.374Z,22.00
2018-06-08T03:41:18.662Z,22.07
2018-06-08T03:43:46.972Z,21.00
2018-06-08T03:46:15.263Z,18.77
2018-06-08T03:48:43.608Z,18.93
2018-06-08T03:51:11.908Z,22.27
2018-06-08T03:53:40.491Z,18.60
2018-06-08T03:56:08.778Z,19.47
2018-06-08T03:58:37.076Z,16.00
2018-06-08T04:01:05.917Z,15.77
2018-06-08T04:03:34.673Z,14.07
2018-06-08T04:06:02.986Z,17.13
2018-06-08T04:08:31.280Z,16.00
2018-06-08T04:10:59.590Z,17.47
2018-06-08T04:13:27.904Z,15.60
2018-06-08T04:15:56.433Z,16.00
2018-06-08T04:18:24.725Z,14.07
2018-06-08T04:20:53.035Z,17.23
2018-06-08T04:23:21.340Z,14.90
2018-06-08T04:25:49.691Z,16.53
2018-06-08T04:28:17.770Z,17.40
2018-06-08T04:30:46.071Z,17.50
2018-06-08T04:33:14.392Z,16.30
2018-06-08T04:35:42.792Z,16.20
2018-06-08T04:38:11.106Z,17.37
2018-06-08T04:40:39.165Z,17.70
2018-06-08T04:43:07.458Z,18.80
2018-06-08T04:45:35.472Z,18.83
2018-06-08T04:48:03.776Z,18.67
2018-06-08T04:50:32.097Z,18.17
2018-06-08T04:53:00.396Z,18.63
2018-06-08T04:55:28.709Z,20.47
2018-06-08T04:57:57.043Z,20.70
2018-06-08T05:00:25.361Z,20.53
2018-06-08T05:02:53.673Z,18.80
2018-06-08T05:05:21.961Z,18.90
2018-06-08T05:07:50.301Z,18.80
2018-06-08T05:10:18.602Z,21.10
2018-06-08T05:12:46.891Z,20.87
2018-06-08T05:15:15.203Z,21.60
2018-06-08T05:17:43.581Z,18.47
2018-06-08T05:20:11.901Z,16.73
2018-06-08T05:22:40.198Z,17.73
2018-06-08T05:25:08.213Z,17.67
2018-06-08T05:27:36.512Z,16.73
2018-06-08T05:30:09.074Z,17.23
2018-06-08T05:32:37.385Z,17.03
2018-06-08T05:35:05.418Z,18.80
2018-06-08T05:37:34.097Z,18.03
2018-06-08T05:40:02.803Z,19.53
2018-06-08T05:42:31.111Z,19.87
2018-06-08T05:44:59.121Z,20.17
2018-06-08T05:47:27.437Z,18.87
2018-06-08T05:49:56.152Z,17.33
2018-06-08T05:52:24.489Z,14.77
2018-06-08T05:54:53.053Z,15.80
2018-06-08T05:57:21.374Z,17.90
2018-06-08T05:59:49.649Z,17.20
2018-06-08T06:02:17.953Z,17.13
2018-06-08T06:04:46.241Z,18.60
2018-06-08T06:07:14.541Z,19.83
2018-06-08T06:09:42.821Z,20.47
2018-06-08T06:12:12.117Z,18.53
2018-06-08T06:14:40.924Z,20.83
2018-06-08T06:17:09.248Z,19.03
2018-06-08T06:19:37.532Z,19.10
2018-06-08T06:22:05.924Z,19.27
2018-06-08T06:24:34.237Z,19.63
2018-06-08T06:27:02.577Z,20.80
2018-06-08T06:29:31.072Z,21.33
2018-06-08T06:31:59.547Z,19.00
2018-06-08T06:34:28.135Z,19.83
2018-06-08T06:36:56.766Z,19.23
2018-06-08T06:39:25.510Z,17.60
2018-06-08T06:41:54.219Z,17.60
2018-06-08T06:44:22.743Z,20.00
2018-06-08T06:46:51.052Z,21.87
2018-06-08T06:49:19.720Z,22.87
2018-06-08T06:51:48.338Z,19.80
2018-06-08T06:54:16.885Z,20.00
2018-06-08T06:56:45.454Z,22.50
2018-06-08T06:59:14.138Z,21.47
2018-06-08T07:01:42.622Z,24.97
2018-06-08T07:04:11.141Z,23.13
2018-06-08T07:06:39.710Z,25.60
2018-06-08T07:09:09.118Z,25.13
2018-06-08T07:11:37.770Z,24.93
2018-06-08T07:14:06.309Z,24.40
2018-06-08T07:16:34.934Z,20.17
2018-06-08T07:19:03.293Z,23.57
2018-06-08T07:21:31.888Z,23.50
2018-06-08T07:24:00.415Z,23.23
2018-06-08T07:26:29.620Z,22.10
2018-06-08T07:28:58.097Z,22.60
2018-06-08T07:31:26.715Z,22.77
2018-06-08T07:33:55.222Z,25.07
2018-06-08T07:36:23.860Z,26.77
2018-06-08T07:38:52.458Z,25.43
2018-06-08T07:41:21.139Z,24.03
2018-06-08T07:43:49.753Z,23.10
2018-06-08T07:46:18.060Z,24.63
2018-06-08T07:48:46.382Z,25.37
2018-06-08T07:51:14.732Z,23.13
2018-06-08T07:53:43.349Z,24.87
2018-06-08T07:56:11.639Z,24.10
2018-06-08T07:58:39.923Z,22.27
2018-06-08T08:01:08.238Z,26.33
2018-06-08T08:03:36.551Z,27.73
2018-06-08T08:06:04.891Z,28.07
2018-06-08T08:08:33.221Z,27.83
2018-06-08T08:11:01.554Z,27.53
2018-06-08T08:13:29.849Z,27.47
2018-06-08T08:15:58.149Z,26.20
2018-06-08T08:18:26.449Z,25.67
2018-06-08T08:20:54.465Z,26.73
2018-06-08T08:23:22.776Z,24.93
2018-06-08T08:25:51.167Z,25.97
2018-06-08T08:28:19.429Z,26.83
2018-06-08T08:30:47.747Z,26.67
2018-06-08T08:33:16.231Z,26.03
2018-06-08T08:35:44.611Z,26.37
2018-06-08T08:38:13.090Z,26.50
2018-06-08T08:40:41.393Z,26.20
2018-06-08T08:43:09.970Z,27.43
2018-06-08T08:45:38.548Z,27.87
2018-06-08T08:48:06.853Z,25.73
2018-06-08T08:50:35.364Z,23.80
2018-06-08T08:53:06.593Z,21.80
2018-06-08T08:55:34.909Z,23.40
2018-06-08T08:58:03.201Z,23.40
2018-06-08T09:00:31.509Z,25.17
2018-06-08T09:02:59.844Z,22.17
2018-06-08T09:05:31.221Z,21.07
2018-06-08T09:07:59.518Z,19.10
2018-06-08T09:10:27.861Z,20.27
2018-06-08T09:12:56.204Z,21.03
2018-06-08T09:15:24.579Z,19.00
2018-06-08T09:17:53.135Z,20.87
2018-06-08T09:20:21.642Z,17.37
2018-06-08T09:22:50.075Z,17.73
2018-06-08T09:25:19.077Z,15.07
2018-06-08T09:27:47.409Z,16.13
2018-06-08T09:30:15.866Z,20.20
2018-06-08T09:32:44.316Z,21.77
2018-06-08T09:35:12.642Z,18.87
2018-06-08T09:37:40.940Z,21.20
2018-06-08T09:40:09.506Z,16.50
2018-06-08T09:42:38.055Z,19.53
2018-06-08T09:45:06.586Z,15.30
2018-06-08T09:47:35.110Z,15.13
2018-06-08T09:50:03.628Z,14.63
2018-06-08T09:52:31.959Z,11.03
2018-06-08T09:55:01.192Z,9.63
2018-06-08T09:57:29.359Z,9.73
2018-06-08T09:59:57.828Z,10.80
2018-06-08T10:02:26.133Z,10.30
2018-06-08T10:04:54.598Z,9.80
2018-06-08T10:07:22.883Z,9.37
2018-06-08T10:09:51.197Z,8.90
2018-06-08T10:12:19.672Z,9.93
2018-06-08T10:14:47.999Z,9.00
2018-06-08T10:17:16.556Z,8.70
2018-06-08T10:19:45.037Z,12.50
2018-06-08T10:22:13.326Z,10.63
2018-06-08T10:24:41.798Z,9.87
2018-06-08T10:27:10.223Z,8.20
2018-06-08T10:29:38.549Z,14.23
2018-06-08T10:32:07.005Z,14.07
2018-06-08T10:34:35.322Z,15.20
2018-06-08T10:37:03.642Z,14.77
2018-06-08T10:39:31.921Z,14.83
2018-06-08T10:42:00.319Z,15.63
2018-06-08T10:44:28.865Z,17.17
2018-06-08T10:46:57.190Z,16.27
2018-06-08T10:49:25.729Z,14.50
2018-06-08T10:51:54.210Z,15.20
2018-06-08T10:54:22.527Z,15.13
2018-06-08T10:56:50.876Z,15.00
2018-06-08T10:59:20.387Z,14.80
2018-06-08T11:01:48.753Z,15.90
2018-06-08T11:04:17.181Z,19.00
2018-06-08T11:06:45.538Z,19.30
2018-06-08T11:09:13.843Z,17.10
2018-06-08T11:11:42.132Z,18.97
2018-06-08T11:14:10.643Z,19.63
2018-06-08T11:16:39.194Z,18.57
2018-06-08T11:19:07.493Z,19.50
2018-06-08T11:21:36.027Z,17.13
2018-06-08T11:24:04.386Z,18.37
2018-06-08T11:26:32.876Z,17.40
2018-06-08T11:29:01.324Z,15.13
2018-06-08T11:31:29.736Z,14.90
2018-06-08T11:33:58.094Z,16.00
2018-06-08T11:36:26.398Z,14.50
2018-06-08T11:38:54.814Z,15.07
2018-06-08T11:41:23.223Z,14.63
2018-06-08T11:43:51.659Z,14.87
2018-06-08T11:46:20.199Z,11.20
2018-06-08T11:48:48.721Z,13.10
2018-06-08T11:51:17.149Z,11.83
2018-06-08T11:53:45.658Z,11.20
2018-06-08T11:56:14.235Z,11.10
2018-06-08T11:58:42.736Z,10.00
2018-06-08T12:01:11.222Z,9.60
2018-06-08T12:03:39.815Z,8.93
2018-06-08T12:06:08.286Z,8.30
2018-06-08T12:08:36.722Z,8.57
2018-06-08T12:11:05.237Z,13.30
2018-06-08T12:13:33.670Z,11.77
2018-06-08T12:16:02.174Z,13.90
2018-06-08T12:18:30.643Z,11.37
2018-06-08T12:20:58.951Z,10.67
2018-06-08T12:23:27.443Z,11.70
2018-06-08T12:25:56.474Z,10.37
2018-06-08T12:28:24.917Z,8.50
2018-06-08T12:30:53.339Z,10.00
2018-06-08T12:33:21.806Z,9.60
2018-06-08T12:35:50.369Z,9.93
2018-06-08T12:38:18.855Z,10.20
2018-06-08T12:40:47.142Z,11.30
2018-06-08T12:43:15.518Z,10.83
2018-06-08T12:45:43.942Z,9.57
2018-06-08T12:48:12.448Z,8.87
2018-06-08T12:50:40.957Z,9.37
2018-06-08T12:53:09.417Z,7.70
2018-06-08T12:55:37.841Z,12.33
2018-06-08T12:58:06.346Z,10.00
2018-06-08T13:00:34.694Z,10.87
2018-06-08T13:03:03.202Z,10.03
2018-06-08T13:05:31.695Z,9.93
2018-06-08T13:08:00.132Z,7.27
2018-06-08T13:10:28.431Z,7.30
2018-06-08T13:12:56.863Z,6.60
2018-06-08T13:15:25.379Z,7.50
2018-06-08T13:17:53.823Z,7.07
2018-06-08T13:20:22.311Z,8.27
2018-06-08T13:22:50.752Z,9.60
2018-06-08T13:25:19.258Z,8.27
2018-06-08T13:27:47.724Z,8.50
2018-06-08T13:30:16.285Z,8.50
2018-06-08T13:32:44.714Z,8.20
2018-06-08T13:35:13.021Z,8.50
2018-06-08T13:37:41.497Z,9.50
2018-06-08T13:40:09.988Z,8.63
2018-06-08T13:42:38.509Z,7.67
2018-06-08T13:45:06.969Z,8.87
2018-06-08T13:47:35.450Z,8.90
2018-06-08T13:50:04.043Z,9.57
2018-06-08T13:52:32.501Z,8.93
2018-06-08T13:55:02.184Z,7.80
2018-06-08T13:57:31.024Z,8.80
2018-06-08T13:59:59.436Z,8.77
2018-06-08T14:02:27.922Z,7.40
2018-06-08T14:04:56.482Z,6.73
2018-06-08T14:07:24.839Z,7.70
2018-06-08T14:09:53.306Z,7.67
2018-06-08T14:12:21.806Z,6.90
2018-06-08T14:14:50.278Z,7.00
2018-06-08T14:17:18.597Z,6.73
2018-06-08T14:19:47.078Z,6.47
2018-06-08T14:22:15.505Z,7.30
2018-06-08T14:24:43.971Z,7.23
2018-06-08T14:27:12.633Z,7.97
2018-06-08T14:29:41.050Z,7.23
2018-06-08T14:32:09.457Z,7.30
2018-06-08T14:34:38.048Z,7.20
2018-06-08T14:37:06.597Z,9.73
2018-06-08T14:39:34.946Z,8.43
2018-06-08T14:42:03.365Z,7.13
2018-06-08T14:44:31.902Z,7.87
2018-06-08T14:47:00.393Z,7.07
2018-06-08T14:49:28.858Z,7.30
2018-06-08T14:51:57.311Z,7.10
2018-06-08T14:54:25.801Z,7.70
2018-06-08T14:56:54.298Z,8.07
2018-06-08T14:59:22.616Z,6.90
2018-06-08T15:01:50.943Z,9.50
2018-06-08T15:04:19.371Z,7.57
2018-06-08T15:06:47.897Z,7.10
2018-06-08T15:09:16.455Z,7.10
2018-06-08T15:11:44.810Z,6.60
2018-06-08T15:14:13.317Z,6.40
2018-06-08T15:16:41.900Z,7.13
2018-06-08T15:19:10.393Z,7.03
2018-06-08T15:21:38.879Z,7.73
2018-06-08T15:24:07.889Z,7.60
2018-06-08T15:26:36.202Z,7.50
2018-06-08T15:29:04.734Z,7.90
2018-06-08T15:31:34.115Z,7.17
2018-06-08T15:34:02.481Z,7.10
2018-06-08T15:36:31.474Z,6.67
2018-06-08T15:39:00.095Z,9.10
2018-06-08T15:41:28.677Z,6.63
2018-06-08T15:43:57.636Z,4.10
2018-06-08T15:46:26.182Z,5.10
2018-06-08T15:48:54.659Z,4.30
2018-06-08T15:51:23.244Z,4.20
2018-06-08T15:53:51.762Z,4.70
2018-06-08T15:56:20.270Z,4.23
2018-06-08T15:58:48.712Z,4.20
2018-06-08T16:01:17.165Z,4.37
2018-06-08T16:03:45.513Z,4.50
2018-06-08T16:06:13.786Z,3.70
2018-06-08T16:08:42.576Z,3.73
2018-06-08T16:11:11.066Z,4.10
2018-06-08T16:13:39.385Z,3.83
2018-06-08T16:16:07.793Z,4.43
2018-06-08T16:18:36.109Z,4.10
2018-06-08T16:21:04.561Z,3.60
2018-06-08T16:23:33.017Z,3.80
2018-06-08T16:26:01.765Z,4.00
2018-06-08T16:28:30.399Z,4.67
2018-06-08T16:30:58.822Z,4.33
2018-06-08T16:33:27.303Z,5.10
2018-06-08T16:35:55.717Z,5.63
2018-06-08T16:38:24.138Z,5.33
2018-06-08T16:40:52.583Z,5.30
2018-06-08T16:43:21.070Z,5.00
2018-06-08T16:45:49.084Z,5.23
2018-06-08T16:48:17.570Z,5.13
2018-06-08T16:50:45.988Z,5.23
2018-06-08T16:53:14.327Z,4.63
2018-06-08T16:55:42.769Z,4.67
2018-06-08T16:58:11.190Z,4.53
2018-06-08T17:00:43.732Z,4.30
2018-06-08T17:03:13.454Z,4.40
2018-06-08T17:05:42.301Z,4.50
2018-06-08T17:08:11.487Z,4.50
2018-06-08T17:10:39.903Z,4.70
2018-06-08T17:13:08.239Z,4.43
2018-06-08T17:15:37.194Z,4.67
2018-06-08T17:18:06.378Z,4.50
2018-06-08T17:20:34.662Z,5.00
2018-06-08T17:23:02.945Z,4.47
2018-06-08T17:25:31.956Z,4.67
2018-06-08T17:28:01.174Z,5.00
2018-06-08T17:30:29.463Z,4.80
2018-06-08T17:32:57.725Z,5.00
2018-06-08T17:35:26.606Z,5.60
2018-06-08T17:37:55.943Z,4.90
2018-06-08T17:40:24.311Z,5.30
2018-06-08T17:42:52.597Z,6.23
2018-06-08T17:45:20.909Z,11.50
2018-06-08T17:47:49.869Z,13.50
2018-06-08T17:50:18.429Z,11.17
2018-06-08T17:52:47.464Z,32.53
2018-06-08T17:55:23.755Z,26.30
2018-06-08T17:57:52.102Z,31.73
2018-06-08T18:00:20.997Z,16.30
2018-06-08T18:02:49.331Z,12.63
2018-06-08T18:05:18.222Z,7.20
2018-06-08T18:07:47.109Z,5.53
2018-06-08T18:10:15.938Z,5.30
2018-06-08T18:12:44.283Z,9.87
2018-06-08T18:15:12.971Z,13.90
2018-06-08T18:17:41.351Z,5.53
2018-06-08T18:20:09.608Z,12.80
2018-06-08T18:22:38.305Z,13.77
2018-06-08T18:25:06.610Z,9.37
2018-06-08T18:27:35.729Z,5.30
2018-06-08T18:30:05.275Z,7.87
2018-06-08T18:32:33.574Z,5.07
2018-06-08T18:35:01.862Z,3.80
2018-06-08T18:37:30.846Z,3.80
2018-06-08T18:39:59.208Z,3.63
2018-06-08T18:42:27.433Z,4.20
2018-06-08T18:44:56.464Z,3.53
2018-06-08T18:47:25.228Z,3.47
2018-06-08T18:49:53.542Z,3.57
2018-06-08T18:52:22.581Z,4.10
2018-06-08T18:54:51.681Z,3.60
2018-06-08T18:57:20.706Z,3.70
2018-06-08T18:59:49.783Z,3.73
2018-06-08T19:02:18.066Z,4.00
2018-06-08T19:04:46.928Z,3.90
2018-06-08T19:07:15.924Z,3.77
2018-06-08T19:09:44.197Z,3.97
2018-06-08T19:12:12.553Z,3.90
2018-06-08T19:14:40.915Z,3.67
2018-06-08T19:17:09.774Z,3.70
2018-06-08T19:19:38.143Z,3.60
2018-06-08T19:22:08.448Z,3.73
2018-06-08T19:24:39.337Z,3.63
2018-06-08T19:27:09.686Z,3.30
2018-06-08T19:29:39.805Z,3.83
2018-06-08T19:32:10.724Z,3.50
2018-06-08T19:34:41.163Z,3.70
2018-06-08T19:37:12.724Z,3.90
2018-06-08T19:39:42.919Z,4.27
2018-06-08T19:42:17.872Z,4.10
2018-06-08T19:44:51.230Z,3.73
2018-06-08T19:47:23.983Z,3.43
2018-06-08T19:49:55.546Z,3.67
2018-06-08T19:52:26.965Z,3.80
2018-06-08T19:54:58.195Z,3.50
2018-06-08T19:57:28.441Z,3.43
2018-06-08T19:59:59.230Z,3.90
2018-06-08T20:02:28.193Z,3.97
2018-06-08T20:04:56.511Z,3.93
2018-06-08T20:07:24.800Z,4.07
2018-06-08T20:09:53.778Z,4.43
2018-06-08T20:12:22.058Z,4.13
2018-06-08T20:14:50.954Z,4.33
2018-06-08T20:17:19.937Z,3.67
2018-06-08T20:19:48.215Z,3.57
2018-06-08T20:22:16.679Z,3.90
2018-06-08T20:24:45.011Z,4.10
2018-06-08T20:27:13.354Z,4.20
2018-06-08T20:29:41.841Z,4.23
2018-06-08T20:32:10.733Z,5.10
2018-06-08T20:34:39.054Z,4.50
2018-06-08T20:37:07.348Z,4.37
2018-06-08T20:39:35.614Z,4.87
2018-06-08T20:42:03.909Z,5.33
2018-06-08T20:44:32.209Z,5.23
2018-06-08T20:47:00.493Z,5.13
2018-06-08T20:49:28.793Z,5.40
2018-06-08T20:52:03.893Z,5.67
2018-06-08T20:54:32.276Z,5.03
2018-06-08T20:57:10.452Z,5.63
2018-06-08T20:59:38.813Z,5.00
2018-06-08T21:02:07.559Z,5.03
2018-06-08T21:04:35.905Z,5.53
2018-06-08T21:07:04.343Z,5.30
2018-06-08T21:09:32.727Z,5.30
2018-06-08T21:12:01.039Z,4.67
2018-06-08T21:14:29.393Z,4.87
2018-06-08T21:16:57.712Z,4.57
2018-06-08T21:19:26.075Z,4.77
2018-06-08T21:21:54.438Z,4.60
2018-06-08T21:24:22.778Z,4.90
2018-06-08T21:26:51.144Z,4.90
2018-06-08T21:29:19.487Z,5.70
2018-06-08T21:31:47.795Z,5.47
2018-06-08T21:34:16.128Z,5.30
2018-06-08T21:36:44.497Z,5.20
2018-06-08T21:39:12.783Z,6.13
2018-06-08T21:41:41.082Z,5.87
2018-06-08T21:44:09.470Z,5.90
2018-06-08T21:46:37.846Z,5.93
2018-06-08T21:49:06.802Z,5.43
2018-06-08T21:51:35.162Z,5.30
2018-06-08T21:54:03.480Z,5.70
2018-06-08T21:56:32.181Z,5.40
2018-06-08T21:59:00.535Z,5.20
2018-06-08T22:01:28.881Z,5.60
2018-06-08T22:03:57.219Z,5.40
2018-06-08T22:06:25.529Z,6.00
2018-06-08T22:08:53.552Z,5.67
2018-06-08T22:11:21.853Z,5.37
2018-06-08T22:13:50.135Z,5.77
2018-06-08T22:16:18.584Z,5.17
2018-06-08T22:18:47.008Z,4.97
2018-06-08T22:21:15.329Z,5.30
2018-06-08T22:23:43.641Z,5.17
2018-06-08T22:26:11.989Z,5.53
2018-06-08T22:28:40.261Z,5.47
2018-06-08T22:31:08.565Z,5.57
2018-06-08T22:33:36.881Z,4.97
2018-06-08T22:36:04.978Z,5.00
2018-06-08T22:38:33.264Z,5.30
2018-06-08T22:41:01.631Z,5.07
2018-06-08T22:43:30.117Z,4.27
2018-06-08T22:45:58.437Z,4.70
2018-06-08T22:48:26.732Z,4.33
2018-06-08T22:50:55.034Z,4.53
2018-06-08T22:53:23.320Z,4.20
2018-06-08T22:55:51.617Z,4.23
2018-06-08T22:58:19.922Z,4.33
2018-06-08T23:00:48.267Z,4.10
2018-06-08T23:03:16.597Z,3.80
2018-06-08T23:05:44.921Z,3.90
2018-06-08T23:08:13.205Z,4.30
2018-06-08T23:10:41.512Z,4.03
2018-06-08T23:13:09.922Z,4.13
2018-06-08T23:15:38.259Z,4.40
2018-06-08T23:18:06.548Z,4.30
2018-06-08T23:20:34.973Z,4.27
2018-06-08T23:23:03.285Z,4.20
2018-06-08T23:25:31.574Z,4.60
2018-06-08T23:27:59.951Z,4.00
2018-06-08T23:30:28.250Z,4.37
2018-06-08T23:32:56.529Z,4.33
2018-06-08T23:35:24.995Z,3.70
2018-06-08T23:37:53.361Z,4.27
2018-06-08T23:40:21.656Z,4.17
2018-06-08T23:42:52.930Z,4.30
2018-06-08T23:45:21.221Z,4.50
2018-06-08T23:47:49.534Z,4.40
2018-06-08T23:50:17.930Z,4.47
2018-06-08T23:52:46.209Z,4.40
2018-06-08T23:55:14.496Z,4.23
2018-06-08T23:57:42.830Z,4.10
